Terminal Aerodrome Forecast
Issued by NWS

Home | Current Version | Previous Version | Text Only | Print | Product List | Glossary On
Versions: 1 2 3 4 5 6 7 8 9 10 11 12 13
720
FTUS44 KSJT 282333
TAFBBD
TAF
KBBD 282333Z 2900/2924 VRB06KT P6SM SKC
     FM291200 VRB06KT P6SM OVC015
     FM291800 07008KT P6SM BKN050 PROB30 2918/2924 P6SM TS BKN050CB
      AMD NOT SKED=

USA.gov is the U.S. government's official web portal to all federal, state and local government web resources and services.